Anderson Island, WA

4:10 PM PDT on October 22, 2014 (GMT -0700)
Olympia | Change Station
CLOSE
Current Station
Airport
Location: Olympia,
Elevation: 200 ft
Nearby Weather Stations

Elev 200 ft 46.97 °N, 122.90 °W | Updated 16 minutes ago

Rain
Rain
56 °F
Feels Like 56 °F
N
12
Wind Variable Wind from South

Today
High -- | Low -- °F
--% Chance of Precip.
Yesterday
High -- | Low -- °F
Precip. -- in
7:39 AM 6:10 PM
Waning Crescent, 1% visible
Pressure 29.63 in
Visibility 4.0 miles
Clouds Mostly Cloudy 1300 ft
Mostly Cloudy 7000 ft
Overcast 8500 ft
Dew Point 53 °F
Humidity 90%
Rainfall 1.25 in
Snow Depth Not available.
UV 0 out of 12
Pollen .40 out of 12
PM2.5 Good
Flu Activity Sporadic
METAR KOLM 222254Z 19010KT 4SM -RA BR BKN013 BKN070 OVC085 13/12 A2963 RMK AO2 SLP032 P0011 T01330117 $

More Conditions Fewer Conditions

Pressure 29.63 in
Visibility 4.0 miles
Clouds Mostly Cloudy 1300 ft
Mostly Cloudy 7000 ft
Overcast 8500 ft
Dew Point 53 °F
Humidity 90%
Rainfall 1.25 in
Snow Depth Not available.
UV 0 out of 12
Pollen .40 out of 12
PM2.5 Good
Flu Activity Sporadic
METAR KOLM 222254Z 19010KT 4SM -RA BR BKN013 BKN070 OVC085 13/12 A2963 RMK AO2 SLP032 P0011 T01330117 $

More Conditions Fewer Conditions

10-Day Weather Forecast

Almanac

Astronomy

Oct. 22, 2014 Rise Set
Actual Time 7:39 AM PDT 6:10 PM PDT
Civil Twilight 7:08 AM PDT 6:41 PM PDT
Nautical Twilight 6:32 AM PDT 7:17 PM PDT
Astronomical Twilight 5:57 AM PDT 7:52 PM PDT
Moon 6:21 AM PDT 5:43 PM PDT
Length of Visible Light 11h 33m
Length of Day
10h 31m
Tomorrow will be 3m 12s shorter.
Waning Crescent, 1% of the Moon is Illuminated
Today
Waning Crescent
Oct 23
New
Oct 30
First Quarter
Nov 6
Full
Nov 14
Last Quarter

Today's Extremes

State Highs State Lows

Community

WunderPhotos

Upload Photos

1,764,075 photos uploaded!

WunderBlogs® & News

Nearby

Air Quality

  Air Quality AQ Index Pollutant
Yesterday Good
PM2.5
Current Good
PM2.5
Wednesday Good
PM2.5
Thursday Good
PM2.5
Friday Good
PM2.5
Saturday Good
PM2.5
Sunday Good
PM2.5
Monday Good
PM2.5

Snow Depth

Station Depth Elevation
Dungeness 0 in 4100 ft
Mount Gardner 0 in 3000 ft
Meadows Pass 0 in 3500 ft
Morse Lake 0 in 5400 ft
Skookum Creek 0 in 3920 ft

Earthquake Activity

City Distance Mag. Time & Date
No recent earthquake activity has been reported nearby.
Minimum magnitude displayed is 2.5.

Coastal Water Temperatures

Place Temperature
Port Townsend, WA 52.0 °F
Seattle, WA 55.0 °F
Friday Harbor, WA 51.1 °F
Tacoma, WA 55.0 °F

Nearby Weather Stations